Search for airport 
image banner adimage banner adimage banner ad
image banner ad

03CA - Grossmont Hospital

Located in La Mesa, United States

ICAO - 03CA, IATA -

Data provided by Airmate  

General information

Coordinates: N32°46'46" W117°0'25"
Elevation is 634 feet MSL.
Magnetic variation is 13° East
View others Airports in California

Operational data

Special qualification required
Current time UTC:
Current local time:
Weather at : KSEE - Gillespie Field ( 6 km )
METAR: KSEE 210955Z AUTO 29004KT 10SM CLR 15/13 A2993 RMK AO2
View NOTAMs / SUP AIP / TFR affecting this airport [VIEW]
Communications frequencies: [VIEW]

Runways:

Airport contact information

Address: La Mesa United States

Satellite view of 03CA